Carl, Iowa
Current Conditions -  °F | °C
As of 5:15 AM on Sunday 21 Dec 2014 (Local Time) from KCSQ Reporting Station
Haze Haze  
Wind Chill: 26°   Ceiling: 600
Heat Index: 36°   Visibility: 4mi
Dew Point: 36°   Wind: 16mph
Humidity: 100%   Direction: 180°S
Pressure: 29.99"   Gusts: 22mph
Location:  41.0285°N, 94.7568°W
Report Text: KCSQ 211115Z AUTO 18014G19KT 4SM BR OVC006 02/02 A2999 RMK AO2
Loading
Personal Weather Stations






























Interactive Weather Map New forecast layout! Learn more

10-Day Weather Forecast

Advertisements
Track Severe Weather on mobile